KCNO

Chino Airport

Chino, California, USA
METAR KCNO 181053Z AUTO 00000KT 7SM CLR 11/07 A3010 RMK AO2 SLP190 T01110067
Observed Flight Rules
Jan-18 @ 10:53 UTC (44 minutes ago) Visual Flight Rules
Wind Visibility Clouds
Calm 7 miles
  • Clear skies
Temperatures Readings
Current 11°C / 52°F
Dewpoint 7°C / 45°F
Humidity 77%
Altimeter 30.1" Hg
Pressure 1019 hPa
Elevation 207
METAR KCNO 181053Z AUTO 00000KT 7SM CLR 11/07 A3010 RMK AO2 SLP190 T01110067
Observed Flight Rules
Jan-18 @ 10:53 UTC
(44 minutes ago)
VFR
Wind Visibility
Calm 7 miles
Clouds
  • Clear skies
Temperature Dewpoint
11°C / 52°F 7°C / 45°F
Humidity Altimeter Pressure
77% 30.1" Hg 1019 hPa